createdAt,value
2018-10-03T00:01:17.469Z,96187.20
2018-10-03T00:03:51.763Z,96189.47
2018-10-03T00:06:26.720Z,96190.12
2018-10-03T00:09:01.523Z,96180.24
2018-10-03T00:11:36.669Z,96181.86
2018-10-03T00:14:11.200Z,96191.91
2018-10-03T00:16:46.029Z,96189.81
2018-10-03T00:19:21.093Z,96192.70
2018-10-03T00:21:55.775Z,96184.88
2018-10-03T00:24:30.287Z,96185.72
2018-10-03T00:27:05.340Z,96184.88
2018-10-03T00:29:39.776Z,96187.50
2018-10-03T00:32:14.469Z,96185.72
2018-10-03T00:34:48.981Z,96190.95
2018-10-03T00:37:23.584Z,96194.02
2018-10-03T00:39:58.065Z,96195.83
2018-10-03T00:42:32.910Z,96190.29
2018-10-03T00:45:08.101Z,96187.05
2018-10-03T00:47:42.755Z,96181.69
2018-10-03T00:50:17.299Z,96183.95
2018-10-03T00:52:51.640Z,96175.06
2018-10-03T00:55:26.327Z,96173.10
2018-10-03T00:58:00.928Z,96185.59
2018-10-03T01:00:35.333Z,96184.31
2018-10-03T01:03:09.819Z,96190.16
2018-10-03T01:05:44.311Z,96182.52
2018-10-03T01:08:18.627Z,96178.95
2018-10-03T01:10:53.142Z,96171.00
2018-10-03T01:13:27.736Z,96172.78
2018-10-03T01:16:02.460Z,96169.52
2018-10-03T01:18:37.457Z,96168.41
2018-10-03T01:21:11.817Z,96166.27
2018-10-03T01:23:46.148Z,96168.22
2018-10-03T01:26:20.456Z,96161.39
2018-10-03T01:28:54.968Z,96166.77
2018-10-03T01:31:29.452Z,96166.92
2018-10-03T01:34:04.304Z,96159.78
2018-10-03T01:36:38.936Z,96166.63
2018-10-03T01:39:13.775Z,96171.81
2018-10-03T01:41:48.236Z,96177.33
2018-10-03T01:44:22.556Z,96182.22
2018-10-03T01:46:57.000Z,96183.02
2018-10-03T01:49:31.359Z,96184.83
2018-10-03T01:52:06.814Z,96174.53
2018-10-03T01:54:41.524Z,96182.00
2018-10-03T01:57:16.075Z,96186.06
2018-10-03T01:59:50.935Z,96188.03
2018-10-03T02:02:25.258Z,96184.13
2018-10-03T02:05:00.287Z,96186.88
2018-10-03T02:07:34.620Z,96185.58
2018-10-03T02:10:09.058Z,96191.27
2018-10-03T02:12:43.699Z,96193.22
2018-10-03T02:15:18.228Z,96192.40
2018-10-03T02:17:52.581Z,96196.16
2018-10-03T02:20:27.636Z,96200.86
2018-10-03T02:23:02.016Z,96201.99
2018-10-03T02:25:36.756Z,96199.41
2018-10-03T02:28:11.158Z,96205.25
2018-10-03T02:30:45.499Z,96211.43
2018-10-03T02:33:20.214Z,96208.94
2018-10-03T02:35:54.985Z,96202.16
2018-10-03T02:38:29.820Z,96203.78
2018-10-03T02:41:04.503Z,96197.91
2018-10-03T02:43:38.812Z,96190.41
2018-10-03T02:46:13.643Z,96187.83
2018-10-03T02:48:48.432Z,96190.92
2018-10-03T02:51:23.314Z,96193.20
2018-10-03T02:54:07.632Z,96194.04
2018-10-03T02:56:43.060Z,96180.20
2018-10-03T02:59:17.579Z,96193.52
2018-10-03T03:01:52.058Z,96198.27
2018-10-03T03:04:26.903Z,96201.67
2018-10-03T03:07:01.713Z,96200.05
2018-10-03T03:09:36.369Z,96200.36
2018-10-03T03:12:10.694Z,96194.95
2018-10-03T03:14:45.289Z,96211.11
2018-10-03T03:17:20.576Z,96213.06
2018-10-03T03:19:55.472Z,96215.02
2018-10-03T03:22:29.931Z,96206.08
2018-10-03T03:25:04.392Z,96213.22
2018-10-03T03:27:39.254Z,96213.40
2018-10-03T03:30:14.035Z,96216.17
2018-10-03T03:32:48.344Z,96215.49
2018-10-03T03:35:22.666Z,96218.09
2018-10-03T03:37:57.264Z,96224.08
2018-10-03T03:40:31.812Z,96217.91
2018-10-03T03:43:06.443Z,96208.94
2018-10-03T03:45:40.983Z,96211.27
2018-10-03T03:48:15.535Z,96213.55
2018-10-03T03:50:50.296Z,96209.65
2018-10-03T03:53:25.061Z,96212.25
2018-10-03T03:55:59.396Z,96213.23
2018-10-03T03:58:33.987Z,96211.91
2018-10-03T04:01:08.441Z,96217.94
2018-10-03T04:03:43.099Z,96216.94
2018-10-03T04:06:17.868Z,96224.25
2018-10-03T04:08:52.955Z,96229.44
2018-10-03T04:11:27.644Z,96233.70
2018-10-03T04:14:02.609Z,96229.16
2018-10-03T04:16:37.252Z,96232.84
2018-10-03T04:19:12.109Z,96236.75
2018-10-03T04:21:46.896Z,96238.70
2018-10-03T04:24:21.609Z,96232.53
2018-10-03T04:26:56.323Z,96235.45
2018-10-03T04:29:30.732Z,96231.89
2018-10-03T04:32:05.945Z,96233.17
2018-10-03T04:34:40.340Z,96245.69
2018-10-03T04:37:14.778Z,96244.08
2018-10-03T04:39:49.598Z,96253.19
2018-10-03T04:42:24.098Z,96242.95
2018-10-03T04:44:58.718Z,96239.86
2018-10-03T04:47:33.059Z,96243.26
2018-10-03T04:50:07.827Z,96247.16
2018-10-03T04:52:42.298Z,96240.48
2018-10-03T04:55:16.727Z,96246.81
2018-10-03T04:57:51.028Z,96241.33
2018-10-03T05:00:25.507Z,96248.16
2018-10-03T05:03:00.179Z,96239.20
2018-10-03T05:05:34.927Z,96235.45
2018-10-03T05:08:09.811Z,96237.56
2018-10-03T05:10:44.219Z,96239.02
2018-10-03T05:13:18.750Z,96237.58
2018-10-03T05:15:54.167Z,96224.27
2018-10-03T05:18:28.471Z,96232.04
2018-10-03T05:21:03.029Z,96221.62
2018-10-03T05:23:37.375Z,96220.31
2018-10-03T05:26:11.688Z,96226.66
2018-10-03T05:28:46.019Z,96223.56
2018-10-03T05:31:20.831Z,96229.23
2018-10-03T05:33:55.721Z,96223.86
2018-10-03T05:36:30.022Z,96223.38
2018-10-03T05:39:07.011Z,96231.02
2018-10-03T05:41:42.676Z,96232.46
2018-10-03T05:44:17.299Z,96239.45
2018-10-03T05:46:52.155Z,96240.13
2018-10-03T05:49:26.761Z,96231.95
2018-10-03T05:52:01.129Z,96239.09
2018-10-03T05:54:35.625Z,96245.28
2018-10-03T05:57:10.592Z,96252.06
2018-10-03T05:59:45.195Z,96257.56
2018-10-03T06:02:20.103Z,96258.55
2018-10-03T06:04:54.424Z,96261.16
2018-10-03T06:07:28.906Z,96261.02
2018-10-03T06:10:03.267Z,96259.83
2018-10-03T06:12:38.411Z,96260.96
2018-10-03T06:15:13.259Z,96267.17
2018-10-03T06:17:48.239Z,96265.97
2018-10-03T06:20:23.214Z,96264.35
2018-10-03T06:22:57.620Z,96266.75
2018-10-03T06:25:33.528Z,96265.63
2018-10-03T06:28:08.322Z,96265.53
2018-10-03T06:30:43.322Z,96267.48
2018-10-03T06:33:18.340Z,96274.94
2018-10-03T06:35:53.821Z,96281.60
2018-10-03T06:38:28.336Z,96286.64
2018-10-03T06:41:02.828Z,96289.49
2018-10-03T06:43:37.287Z,96305.91
2018-10-03T06:46:12.107Z,96303.66
2018-10-03T06:48:46.503Z,96303.48
2018-10-03T06:51:20.832Z,96299.67
2018-10-03T06:53:55.173Z,96303.69
2018-10-03T06:56:30.633Z,96298.47
2018-10-03T06:59:06.678Z,96291.97
2018-10-03T07:01:50.427Z,96289.13
2018-10-03T07:04:31.612Z,96295.20
2018-10-03T07:07:07.512Z,96301.99
2018-10-03T07:09:51.938Z,96298.75
2018-10-03T07:12:26.344Z,96298.43
2018-10-03T07:15:00.984Z,96308.99
2018-10-03T07:17:35.498Z,96306.25
2018-10-03T07:20:10.429Z,96308.14
2018-10-03T07:22:45.179Z,96316.91
2018-10-03T07:25:22.103Z,96316.22
2018-10-03T07:27:56.583Z,96319.34
2018-10-03T07:30:31.088Z,96316.64
2018-10-03T07:33:06.589Z,96323.62
2018-10-03T07:35:40.873Z,96321.05
2018-10-03T07:38:15.280Z,96325.38
2018-10-03T07:40:50.540Z,96325.38
2018-10-03T07:43:25.471Z,96323.20
2018-10-03T07:45:59.987Z,96331.30
2018-10-03T07:48:34.699Z,96329.68
2018-10-03T07:51:09.496Z,96339.54
2018-10-03T07:53:44.244Z,96333.11
2018-10-03T07:56:18.949Z,96344.50
2018-10-03T07:58:54.540Z,96344.59
2018-10-03T08:01:29.124Z,96343.69
2018-10-03T08:04:03.616Z,96350.93
2018-10-03T08:06:38.083Z,96352.06
2018-10-03T08:09:12.610Z,96358.18
2018-10-03T08:11:47.152Z,96346.03
2018-10-03T08:14:21.568Z,96350.89
2018-10-03T08:16:56.438Z,96356.29
2018-10-03T08:19:31.273Z,96354.08
2018-10-03T08:22:05.634Z,96357.55
2018-10-03T08:24:40.483Z,96356.76
2018-10-03T08:27:15.462Z,96355.43
2018-10-03T08:29:49.756Z,96351.66
2018-10-03T08:32:24.316Z,96360.45
2018-10-03T08:34:59.467Z,96350.13
2018-10-03T08:37:34.265Z,96355.19
2018-10-03T08:40:08.776Z,96362.77
2018-10-03T08:42:49.353Z,96367.66
2018-10-03T08:45:23.842Z,96372.03
2018-10-03T08:47:58.624Z,96366.62
2018-10-03T08:50:33.634Z,96356.77
2018-10-03T08:53:08.617Z,96364.02
2018-10-03T08:55:43.676Z,96361.16
2018-10-03T08:58:18.154Z,96361.73
2018-10-03T09:00:52.772Z,96359.20
2018-10-03T09:03:27.118Z,96352.16
2018-10-03T09:06:01.680Z,96352.72
2018-10-03T09:08:36.285Z,96366.49
2018-10-03T09:11:12.168Z,96356.23
2018-10-03T09:13:47.157Z,96358.02
2018-10-03T09:16:21.800Z,96339.56
2018-10-03T09:18:56.570Z,96348.75
2018-10-03T09:21:31.879Z,96345.48
2018-10-03T09:24:06.951Z,96357.27
2018-10-03T09:26:44.239Z,96369.84
2018-10-03T09:29:54.279Z,96365.50
2018-10-03T09:32:29.484Z,96369.73
2018-10-03T09:35:04.339Z,96382.79
2018-10-03T09:37:39.509Z,96384.81
2018-10-03T09:40:14.561Z,96395.17
2018-10-03T09:46:31.138Z,96401.73
2018-10-03T09:49:11.694Z,96397.53
2018-10-03T09:51:52.068Z,96394.83
2018-10-03T09:54:26.930Z,96393.34
2018-10-03T09:57:01.285Z,96394.56
2018-10-03T09:59:35.902Z,96394.20
2018-10-03T10:02:11.671Z,96396.14
2018-10-03T10:04:46.852Z,96395.64
2018-10-03T10:07:21.404Z,96400.01
2018-10-03T10:10:01.043Z,96399.38
2018-10-03T10:12:40.366Z,96405.50
2018-10-03T10:15:15.841Z,96403.66
2018-10-03T10:17:54.300Z,96404.53
2018-10-03T10:20:29.598Z,96403.13
2018-10-03T10:23:05.464Z,96400.98
2018-10-03T10:25:40.541Z,96404.84
2018-10-03T10:28:15.427Z,96403.91
2018-10-03T10:30:49.717Z,96399.33
2018-10-03T10:33:24.540Z,96394.93
2018-10-03T10:35:58.991Z,96391.44
2018-10-03T10:38:33.815Z,96389.66
2018-10-03T10:41:08.725Z,96391.20
2018-10-03T10:43:43.359Z,96385.06
2018-10-03T10:46:18.185Z,96387.58
2018-10-03T10:48:52.868Z,96385.32
2018-10-03T10:51:27.349Z,96383.94
2018-10-03T10:54:02.013Z,96386.61
2018-10-03T10:56:37.123Z,96394.19
2018-10-03T10:59:11.490Z,96405.27
2018-10-03T11:01:46.987Z,96402.53
2018-10-03T11:04:23.253Z,96391.70
2018-10-03T11:07:00.109Z,96388.52
2018-10-03T11:09:34.733Z,96394.67
2018-10-03T11:12:09.483Z,96387.81
2018-10-03T11:14:44.823Z,96381.29
2018-10-03T11:17:19.944Z,96377.40
2018-10-03T11:19:54.580Z,96383.05
2018-10-03T11:22:30.354Z,96388.77
2018-10-03T11:25:13.137Z,96381.67
2018-10-03T11:27:47.915Z,96383.11
2018-10-03T11:30:22.592Z,96385.63
2018-10-03T11:32:58.093Z,96389.49
2018-10-03T11:35:32.510Z,96393.75
2018-10-03T11:38:07.430Z,96387.47
2018-10-03T11:40:46.246Z,96391.27
2018-10-03T11:43:20.982Z,96378.63
2018-10-03T11:45:55.539Z,96383.16
2018-10-03T11:48:29.937Z,96393.34
2018-10-03T11:51:04.517Z,96387.94
2018-10-03T11:53:39.668Z,96389.20
2018-10-03T11:56:14.636Z,96390.70
2018-10-03T11:58:49.281Z,96382.64
2018-10-03T12:01:24.185Z,96393.05
2018-10-03T12:03:58.563Z,96397.09
2018-10-03T12:06:33.288Z,96386.56
2018-10-03T12:09:10.443Z,96389.00
2018-10-03T12:11:45.475Z,96387.71
2018-10-03T12:14:20.068Z,96392.20
2018-10-03T12:16:54.717Z,96397.33
2018-10-03T12:19:32.922Z,96389.58
2018-10-03T12:22:07.847Z,96390.64
2018-10-03T12:24:42.263Z,96391.52
2018-10-03T12:27:16.751Z,96402.88
2018-10-03T12:29:51.325Z,96405.41
2018-10-03T12:32:26.636Z,96393.66
2018-10-03T12:35:01.482Z,96403.48
2018-10-03T12:37:36.124Z,96403.55
2018-10-03T12:40:10.639Z,96402.28
2018-10-03T12:42:45.552Z,96410.96
2018-10-03T12:45:20.146Z,96406.84
2018-10-03T12:47:54.790Z,96416.11
2018-10-03T12:50:36.175Z,96407.82
2018-10-03T12:56:15.331Z,96414.36
2018-10-03T12:59:10.311Z,96416.11
2018-10-03T13:01:57.195Z,96418.23
2018-10-03T13:04:31.795Z,96411.36
2018-10-03T13:07:06.467Z,96406.05
2018-10-03T13:09:41.048Z,96402.80
2018-10-03T13:12:15.493Z,96404.97
2018-10-03T13:14:51.245Z,96404.84
2018-10-03T13:17:33.799Z,96409.54
2018-10-03T13:23:08.768Z,96406.92
2018-10-03T13:26:03.523Z,96408.25
2018-10-03T13:28:38.155Z,96412.05
2018-10-03T13:31:12.903Z,96414.64
2018-10-03T13:33:53.075Z,96415.80
2018-10-03T13:36:28.345Z,96410.44
2018-10-03T13:39:02.980Z,96408.50
2018-10-03T13:41:37.511Z,96408.45
2018-10-03T13:44:12.188Z,96408.17
2018-10-03T13:46:46.744Z,96405.83
2018-10-03T13:49:31.399Z,96412.45
2018-10-03T13:52:05.924Z,96415.55
2018-10-03T13:54:40.514Z,96408.12
2018-10-03T13:57:15.668Z,96412.05
2018-10-03T13:59:50.142Z,96412.05
2018-10-03T14:02:24.816Z,96410.56
2018-10-03T14:05:02.879Z,96415.45
2018-10-03T14:07:37.490Z,96410.93
2018-10-03T14:10:12.291Z,96414.96
2018-10-03T14:12:47.045Z,96427.77
2018-10-03T14:15:21.922Z,96430.42
2018-10-03T14:17:56.464Z,96425.54
2018-10-03T14:20:30.869Z,96434.09
2018-10-03T14:23:05.624Z,96435.94
2018-10-03T14:25:39.933Z,96434.27
2018-10-03T14:28:14.746Z,96433.74
2018-10-03T14:30:49.400Z,96441.02
2018-10-03T14:33:31.739Z,96439.23
2018-10-03T14:36:08.303Z,96432.62
2018-10-03T14:38:42.795Z,96426.89
2018-10-03T14:41:17.184Z,96426.61
2018-10-03T14:43:51.940Z,96436.00
2018-10-03T14:46:27.872Z,96436.59
2018-10-03T14:49:02.617Z,96445.05
2018-10-03T14:51:37.085Z,96442.55
2018-10-03T14:54:12.909Z,96449.55
2018-10-03T14:56:53.662Z,96443.63
2018-10-03T14:59:32.779Z,96448.41
2018-10-03T15:02:23.696Z,96450.50
2018-10-03T15:04:58.095Z,96447.42
2018-10-03T15:07:33.064Z,96456.74
2018-10-03T15:10:07.671Z,96453.59
2018-10-03T15:12:42.387Z,96445.61
2018-10-03T15:15:17.075Z,96444.88
2018-10-03T15:17:55.696Z,96453.30
2018-10-03T15:20:30.145Z,96442.50
2018-10-03T15:23:04.476Z,96441.09
2018-10-03T15:25:39.591Z,96443.05
2018-10-03T15:28:14.251Z,96453.03
2018-10-03T15:30:49.340Z,96453.15
2018-10-03T15:33:23.896Z,96446.69
2018-10-03T15:36:00.360Z,96453.31
2018-10-03T15:38:34.716Z,96450.72
2018-10-03T15:41:09.155Z,96452.32
2018-10-03T15:43:43.947Z,96451.51
2018-10-03T15:46:18.260Z,96467.12
2018-10-03T15:48:52.548Z,96460.20
2018-10-03T15:51:27.346Z,96460.02
2018-10-03T15:54:03.043Z,96463.56
2018-10-03T15:56:38.807Z,96467.00
2018-10-03T16:02:28.287Z,96468.75
2018-10-03T16:05:03.264Z,96474.19
2018-10-03T16:07:37.669Z,96471.39
2018-10-03T16:10:12.341Z,96477.34
2018-10-03T16:12:46.933Z,96480.05
2018-10-03T16:15:21.589Z,96484.03
2018-10-03T16:17:56.024Z,96484.13
2018-10-03T16:20:30.751Z,96484.67
2018-10-03T16:23:05.446Z,96493.39
2018-10-03T16:25:40.059Z,96498.55
2018-10-03T16:28:14.568Z,96496.95
2018-10-03T16:30:51.004Z,96501.55
2018-10-03T16:33:25.352Z,96504.98
2018-10-03T16:35:59.951Z,96515.31
2018-10-03T16:38:34.722Z,96519.60
2018-10-03T16:41:09.577Z,96525.27
2018-10-03T16:43:44.255Z,96524.63
2018-10-03T16:46:18.576Z,96529.59
2018-10-03T16:48:53.049Z,96535.09
2018-10-03T16:51:27.459Z,96533.97
2018-10-03T16:54:01.883Z,96535.34
2018-10-03T16:56:36.391Z,96539.17
2018-10-03T16:59:11.155Z,96533.08
2018-10-03T17:01:46.023Z,96533.89
2018-10-03T17:04:20.896Z,96538.36
2018-10-03T17:06:55.976Z,96536.93
2018-10-03T17:09:32.120Z,96547.56
2018-10-03T17:12:07.103Z,96541.11
2018-10-03T17:14:41.552Z,96539.23
2018-10-03T17:17:16.009Z,96541.97
2018-10-03T17:19:50.500Z,96538.06
2018-10-03T17:22:25.110Z,96535.48
2018-10-03T17:25:00.809Z,96543.33
2018-10-03T17:27:35.737Z,96548.92
2018-10-03T17:30:10.420Z,96554.85
2018-10-03T17:32:44.858Z,96558.81
2018-10-03T17:35:19.327Z,96559.38
2018-10-03T17:37:53.727Z,96558.77
2018-10-03T17:40:28.423Z,96560.81
2018-10-03T17:43:02.849Z,96572.29
2018-10-03T17:45:37.338Z,96573.67
2018-10-03T17:48:11.867Z,96577.28
2018-10-03T17:50:46.692Z,96581.72
2018-10-03T17:53:21.441Z,96580.61
2018-10-03T17:55:56.437Z,96575.42
2018-10-03T17:58:31.040Z,96575.74
2018-10-03T18:01:12.781Z,96579.53
2018-10-03T18:03:47.568Z,96587.00
2018-10-03T18:06:22.651Z,96593.53
2018-10-03T18:08:57.152Z,96596.13
2018-10-03T18:11:31.798Z,96601.02
2018-10-03T18:14:07.379Z,96600.05
2018-10-03T18:16:42.088Z,96599.73
2018-10-03T18:19:18.752Z,96603.79
2018-10-03T18:21:53.499Z,96598.75
2018-10-03T18:24:28.353Z,96602.98
2018-10-03T18:27:07.125Z,96610.13
2018-10-03T18:29:44.840Z,96618.44
2018-10-03T18:32:19.679Z,96615.50
2018-10-03T18:34:55.589Z,96615.34
2018-10-03T18:37:31.892Z,96622.02
2018-10-03T18:40:06.996Z,96619.55
2018-10-03T18:42:41.317Z,96617.27
2018-10-03T18:45:17.042Z,96615.81
2018-10-03T18:47:52.004Z,96628.47
2018-10-03T18:50:27.162Z,96627.33
2018-10-03T18:53:01.659Z,96627.16
2018-10-03T18:55:40.311Z,96631.69
2018-10-03T18:58:16.168Z,96630.69
2018-10-03T19:00:50.771Z,96628.70
2018-10-03T19:03:25.301Z,96636.99
2018-10-03T19:05:59.767Z,96631.14
2018-10-03T19:08:36.405Z,96626.59
2018-10-03T19:11:10.880Z,96632.39
2018-10-03T19:13:45.352Z,96633.52
2018-10-03T19:16:19.784Z,96630.08
2018-10-03T19:18:54.256Z,96635.95
2018-10-03T19:21:30.267Z,96634.64
2018-10-03T19:24:04.752Z,96629.23
2018-10-03T19:26:39.283Z,96630.52
2018-10-03T19:29:14.243Z,96627.59
2018-10-03T19:31:48.649Z,96631.81
2018-10-03T19:34:23.249Z,96633.76
2018-10-03T19:37:04.142Z,96636.20
2018-10-03T19:39:38.728Z,96634.57
2018-10-03T19:42:13.530Z,96635.70
2018-10-03T19:44:48.566Z,96636.03
2018-10-03T19:47:23.592Z,96645.80
2018-10-03T19:49:57.956Z,96641.73
2018-10-03T19:52:32.471Z,96645.13
2018-10-03T19:55:07.662Z,96650.16
2018-10-03T19:57:42.150Z,96651.37
2018-10-03T20:00:16.745Z,96644.71
2018-10-03T20:02:51.238Z,96642.08
2018-10-03T20:05:25.715Z,96649.19
2018-10-03T20:08:00.355Z,96643.97
2018-10-03T20:10:34.843Z,96649.80
2018-10-03T20:13:09.575Z,96644.58
2018-10-03T20:15:44.309Z,96647.90
2018-10-03T20:18:19.048Z,96649.94
2018-10-03T20:20:53.547Z,96647.52
2018-10-03T20:23:28.788Z,96652.98
2018-10-03T20:26:03.268Z,96658.33
2018-10-03T20:28:37.660Z,96659.57
2018-10-03T20:31:12.407Z,96659.55
2018-10-03T20:33:46.776Z,96661.00
2018-10-03T20:36:21.169Z,96663.29
2018-10-03T20:38:56.183Z,96667.09
2018-10-03T20:41:30.758Z,96663.70
2018-10-03T20:44:06.159Z,96657.97
2018-10-03T20:46:40.677Z,96659.64
2018-10-03T20:49:15.178Z,96665.32
2018-10-03T20:51:49.697Z,96666.67
2018-10-03T20:54:24.246Z,96663.78
2018-10-03T20:56:59.174Z,96662.19
2018-10-03T20:59:33.599Z,96659.46
2018-10-03T21:02:08.957Z,96654.44
2018-10-03T21:04:43.581Z,96648.97
2018-10-03T21:07:18.676Z,96648.24
2018-10-03T21:09:52.995Z,96647.91
2018-10-03T21:12:27.455Z,96653.45
2018-10-03T21:15:02.113Z,96649.39
2018-10-03T21:17:36.996Z,96653.98
2018-10-03T21:20:11.343Z,96652.31
2018-10-03T21:22:46.287Z,96651.70
2018-10-03T21:25:20.767Z,96652.36
2018-10-03T21:27:55.227Z,96649.11
2018-10-03T21:30:29.835Z,96646.63
2018-10-03T21:33:04.220Z,96647.27
2018-10-03T21:35:38.708Z,96651.33
2018-10-03T21:38:13.171Z,96647.09
2018-10-03T21:40:47.563Z,96643.67
2018-10-03T21:43:22.132Z,96645.46
2018-10-03T21:45:56.417Z,96646.10
2018-10-03T21:48:30.960Z,96649.36
2018-10-03T21:51:05.847Z,96643.66
2018-10-03T21:53:40.636Z,96648.53
2018-10-03T21:56:15.197Z,96647.36
2018-10-03T21:58:49.732Z,96646.55
2018-10-03T22:01:24.263Z,96644.75
2018-10-03T22:03:58.792Z,96641.17
2018-10-03T22:06:33.435Z,96641.83
2018-10-03T22:09:09.103Z,96644.59
2018-10-03T22:11:43.827Z,96644.59
2018-10-03T22:14:18.251Z,96645.56
2018-10-03T22:16:52.683Z,96647.80
2018-10-03T22:19:27.451Z,96643.22
2018-10-03T22:22:01.991Z,96647.08
2018-10-03T22:24:36.864Z,96652.09
2018-10-03T22:27:11.616Z,96650.27
2018-10-03T22:29:47.426Z,96653.31
2018-10-03T22:32:21.985Z,96650.21
2018-10-03T22:34:56.772Z,96645.48
2018-10-03T22:37:31.459Z,96650.83
2018-10-03T22:40:06.879Z,96650.34
2018-10-03T22:42:41.405Z,96651.31
2018-10-03T22:45:16.168Z,96647.90
2018-10-03T22:47:50.644Z,96651.30
2018-10-03T22:50:25.111Z,96655.03
2018-10-03T22:53:00.379Z,96649.18
2018-10-03T22:55:34.796Z,96652.92
2018-10-03T22:58:09.108Z,96660.56
2018-10-03T23:00:43.507Z,96655.85
2018-10-03T23:03:18.346Z,96662.04
2018-10-03T23:05:53.492Z,96664.16
2018-10-03T23:08:28.436Z,96663.36
2018-10-03T23:11:03.091Z,96667.66
2018-10-03T23:13:37.511Z,96661.98
2018-10-03T23:16:12.371Z,96664.91
2018-10-03T23:18:47.113Z,96667.53
2018-10-03T23:21:21.511Z,96668.01
2018-10-03T23:23:55.775Z,96669.33
2018-10-03T23:26:30.285Z,96668.23
2018-10-03T23:29:05.110Z,96671.65
2018-10-03T23:31:39.780Z,96669.70
2018-10-03T23:34:14.464Z,96675.88
2018-10-03T23:36:50.529Z,96673.30
2018-10-03T23:39:24.976Z,96679.58
2018-10-03T23:41:59.433Z,96682.66
2018-10-03T23:44:34.012Z,96687.05
2018-10-03T23:47:08.416Z,96686.45
2018-10-03T23:49:43.636Z,96688.06
2018-10-03T23:52:18.327Z,96690.45
2018-10-03T23:54:53.183Z,96693.87
2018-10-03T23:57:27.629Z,96694.23
